Wetterdaten: Woche 11.08.03 - 17.08.03 (KW33)
Datum Zeit Temperatur Luftfeuchte Luftdruck Regenmenge Wind Richtung Taupunkt Windchill
11.08.2003 00:00 20.7 C 46 % 1016.4 hPa 0.0 l/m 1.5 km/h (1 Bft) O-SO 8.6 C 20.7 C
11.08.2003 01:00 19.2 C 52 % 1016.0 hPa 0.0 l/m 0.4 km/h (0 Bft) O-SO 9.0 C 19.2 C
11.08.2003 02:00 18.4 C 54 % 1016.0 hPa 0.0 l/m 0.7 km/h (0 Bft) O-SO 9.0 C 18.4 C
11.08.2003 03:00 16.9 C 61 % 1016.0 hPa 0.0 l/m 0.4 km/h (0 Bft) O-SO 9.5 C 16.9 C
11.08.2003 04:00 16.1 C 66 % 1016.2 hPa 0.0 l/m 0.0 km/h (0 Bft) N 9.6 C 16.1 C
11.08.2003 05:00 15.2 C 69 % 1016.7 hPa 0.0 l/m 0.2 km/h (0 Bft) O-SO 9.5 C 15.2 C
11.08.2003 06:00 14.8 C 71 % 1017.0 hPa 0.0 l/m 0.7 km/h (0 Bft) O-SO 9.6 C 14.8 C
11.08.2003 07:00 15.8 C 70 % 1017.0 hPa 0.0 l/m 0.0 km/h (0 Bft) N 10.3 C 15.8 C
11.08.2003 08:00 18.3 C 60 % 1018.0 hPa 0.0 l/m 0.4 km/h (0 Bft) O-SO 10.4 C 18.3 C
11.08.2003 09:00 21.4 C 47 % 1018.1 hPa 0.0 l/m 0.6 km/h (0 Bft) O-SO 9.5 C 21.4 C
11.08.2003 10:00 25.0 C 36 % 1018.1 hPa 0.0 l/m 0.6 km/h (0 Bft) W-NW 8.9 C 25.0 C
11.08.2003 11:00 28.3 C 29 % 1017.9 hPa 0.0 l/m 1.0 km/h (0 Bft) W-NW 8.4 C 28.3 C
11.08.2003 12:00 31.2 C 23 % 1017.9 hPa 0.0 l/m 3.1 km/h (1 Bft) W-NW 7.4 C 31.2 C
11.08.2003 13:00 33.4 C 20 % 1017.3 hPa 0.0 l/m 6.5 km/h (2 Bft) W-NW 7.3 C 33.4 C
11.08.2003 14:00 34.6 C 20 % 1017.0 hPa 0.0 l/m 9.0 km/h (2 Bft) NW 8.3 C 34.6 C
11.08.2003 15:00 35.5 C 20 % 1017.0 hPa 0.0 l/m 9.1 km/h (2 Bft) NW 9.1 C 35.5 C
11.08.2003 16:00 36.4 C 20 % 1016.6 hPa 0.0 l/m 8.0 km/h (2 Bft) NW 9.8 C 36.4 C
11.08.2003 17:00 36.1 C 20 % 1016.2 hPa 0.0 l/m 9.3 km/h (2 Bft) NW 9.5 C 36.1 C
11.08.2003 18:00 35.1 C 20 % 1017.3 hPa 0.0 l/m 11.7 km/h (2 Bft) W-NW 8.7 C 35.1 C
11.08.2003 19:00 33.5 C 20 % 1018.1 hPa 0.0 l/m 3.6 km/h (1 Bft) NW 7.5 C 33.5 C
11.08.2003 20:00 30.3 C 20 % 1018.5 hPa 0.0 l/m 0.1 km/h (0 Bft) N 5.1 C 30.3 C
11.08.2003 21:00 26.3 C 25 % 1019.1 hPa 0.0 l/m 2.4 km/h (1 Bft) O-SO 4.4 C 26.3 C
11.08.2003 22:00 23.3 C 33 % 1019.2 hPa 0.0 l/m 2.0 km/h (1 Bft) O-SO 6.1 C 23.3 C
11.08.2003 23:00 21.3 C 40 % 1020.1 hPa 0.0 l/m 0.9 km/h (0 Bft) O-SO 7.2 C 21.3 C
12.08.2003 00:00 19.7 C 45 % 1020.1 hPa 0.0 l/m 3.6 km/h (1 Bft) O-SO 7.3 C 19.7 C
12.08.2003 01:00 19.0 C 47 % 1020.1 hPa 0.0 l/m 1.1 km/h (1 Bft) O-SO 7.3 C 19.0 C
12.08.2003 02:00 17.6 C 53 % 1020.4 hPa 0.0 l/m 1.2 km/h (1 Bft) O-SO 7.8 C 17.6 C
12.08.2003 03:00 16.9 C 57 % 1021.2 hPa 0.0 l/m 2.0 km/h (1 Bft) O-SO 8.3 C 16.9 C
12.08.2003 04:00 15.7 C 62 % 1021.2 hPa 0.0 l/m 1.7 km/h (1 Bft) O-SO 8.5 C 15.7 C
12.08.2003 05:00 15.0 C 66 % 1021.7 hPa 0.0 l/m 0.6 km/h (0 Bft) O-SO 8.7 C 15.0 C
12.08.2003 06:00 14.6 C 69 % 1022.2 hPa 0.0 l/m 0.2 km/h (0 Bft) O-SO 9.0 C 14.6 C
12.08.2003 07:00 16.0 C 66 % 1022.7 hPa 0.0 l/m 0.3 km/h (0 Bft) O-SO 9.6 C 16.0 C
12.08.2003 08:00 18.4 C 56 % 1023.4 hPa 0.0 l/m 0.0 km/h (0 Bft) N 9.5 C 18.4 C
12.08.2003 09:00 21.5 C 46 % 1024.3 hPa 0.0 l/m 0.0 km/h (0 Bft) N 9.4 C 21.5 C
12.08.2003 10:00 25.0 C 36 % 1024.3 hPa 0.0 l/m 0.3 km/h (0 Bft) SW 8.9 C 25.0 C
12.08.2003 11:00 28.4 C 27 % 1024.0 hPa 0.0 l/m 1.4 km/h (1 Bft) W-NW 7.8 C 28.4 C
12.08.2003 12:00 30.9 C 23 % 1023.3 hPa 0.0 l/m 1.9 km/h (1 Bft) W-NW 7.1 C 30.9 C
12.08.2003 13:00 34.1 C 20 % 1023.3 hPa 0.0 l/m 5.4 km/h (1 Bft) O-SO 8.0 C 34.1 C
12.08.2003 14:00 36.4 C 20 % 1023.3 hPa 0.0 l/m 9.8 km/h (2 Bft) O-SO 9.8 C 36.4 C
12.08.2003 15:00 37.2 C 20 % 1022.2 hPa 0.0 l/m 7.1 km/h (2 Bft) O-SO 10.5 C 37.2 C
12.08.2003 16:00 37.3 C 20 % 1022.2 hPa 0.0 l/m 4.2 km/h (1 Bft) O-SO 10.5 C 37.3 C
12.08.2003 17:00 36.9 C 20 % 1022.1 hPa 0.0 l/m 7.3 km/h (2 Bft) SO 10.2 C 36.9 C
12.08.2003 18:00 36.0 C 20 % 1021.2 hPa 0.0 l/m 4.7 km/h (1 Bft) O-SO 9.4 C 36.0 C
12.08.2003 19:00 34.3 C 20 % 1021.1 hPa 0.0 l/m 8.1 km/h (2 Bft) O-SO 8.1 C 34.3 C
12.08.2003 20:00 30.3 C 26 % 1020.9 hPa 0.0 l/m 5.7 km/h (1 Bft) O-SO 8.5 C 30.3 C
12.08.2003 21:00 26.9 C 34 % 1020.7 hPa 0.0 l/m 4.7 km/h (1 Bft) O-SO 9.4 C 26.9 C
12.08.2003 22:00 24.1 C 41 % 1020.0 hPa 0.0 l/m 3.1 km/h (1 Bft) O-SO 10.1 C 24.1 C
12.08.2003 23:00 21.5 C 51 % 1020.0 hPa 0.0 l/m 2.8 km/h (1 Bft) O-SO 11.0 C 21.5 C
13.08.2003 00:00 20.8 C 53 % 1020.0 hPa 0.0 l/m 4.5 km/h (1 Bft) O-SO 10.9 C 20.8 C
13.08.2003 01:00 19.7 C 58 % 1020.7 hPa 0.0 l/m 3.8 km/h (1 Bft) O-SO 11.2 C 19.7 C
13.08.2003 02:00 18.9 C 60 % 1020.0 hPa 0.0 l/m 2.5 km/h (1 Bft) O-SO 11.1 C 18.9 C
13.08.2003 03:00 17.8 C 66 % 1020.0 hPa 0.0 l/m 2.6 km/h (1 Bft) O-SO 11.3 C 17.8 C
13.08.2003 04:00 17.3 C 68 % 1020.0 hPa 0.0 l/m 3.4 km/h (1 Bft) O-SO 11.4 C 17.3 C
13.08.2003 05:00 16.6 C 71 % 1020.0 hPa 0.0 l/m 5.6 km/h (1 Bft) O-SO 11.3 C 16.6 C
13.08.2003 06:00 15.8 C 77 % 1020.0 hPa 0.0 l/m 3.2 km/h (1 Bft) O-SO 11.7 C 15.8 C
13.08.2003 07:00 17.3 C 72 % 1020.3 hPa 0.0 l/m 1.4 km/h (1 Bft) O-SO 12.2 C 17.3 C
13.08.2003 08:00 19.6 C 64 % 1021.1 hPa 0.0 l/m 0.6 km/h (0 Bft) O-SO 12.5 C 19.6 C
13.08.2003 09:00 22.9 C 51 % 1020.5 hPa 0.0 l/m 5.8 km/h (1 Bft) O-SO 12.1 C 22.9 C
13.08.2003 10:00 26.5 C 37 % 1020.0 hPa 0.0 l/m 13.3 km/h (3 Bft) SO 10.8 C 26.5 C
13.08.2003 11:00 29.7 C 31 % 1020.0 hPa 0.0 l/m 14.1 km/h (3 Bft) SO 10.5 C 29.7 C
13.08.2003 12:00 32.8 C 26 % 1019.3 hPa 0.0 l/m 14.9 km/h (3 Bft) SO 10.6 C 32.8 C
13.08.2003 13:00 35.6 C 25 % 1018.5 hPa 0.0 l/m 7.3 km/h (2 Bft) O-SO 12.5 C 35.6 C
13.08.2003 14:00 37.2 C 25 % 1018.0 hPa 0.0 l/m 8.0 km/h (2 Bft) W-NW 13.8 C 37.2 C
13.08.2003 15:00 37.4 C 25 % 1017.1 hPa 0.0 l/m 10.9 km/h (2 Bft) W-NW 13.9 C 37.4 C
13.08.2003 16:00 37.6 C 20 % 1016.9 hPa 0.0 l/m 10.0 km/h (2 Bft) W-NW 10.8 C 37.6 C
13.08.2003 17:00 37.4 C 20 % 1016.4 hPa 0.0 l/m 20.4 km/h (4 Bft) W-NW 10.8 C 37.4 C
13.08.2003 18:00 36.5 C 21 % 1015.9 hPa 0.0 l/m 9.6 km/h (2 Bft) NW 10.5 C 36.5 C
13.08.2003 19:00 32.5 C 23 % 1016.6 hPa 0.0 l/m 10.9 km/h (2 Bft) NW 8.4 C 32.5 C
13.08.2003 20:00 28.5 C 32 % 1016.4 hPa 0.0 l/m 1.5 km/h (1 Bft) O-SO 10.0 C 28.5 C
13.08.2003 21:00 26.4 C 36 % 1016.9 hPa 0.0 l/m 6.9 km/h (2 Bft) O-SO 10.1 C 26.4 C
13.08.2003 22:00 25.9 C 37 % 1016.9 hPa 0.0 l/m 6.6 km/h (2 Bft) O-SO 10.0 C 25.9 C
13.08.2003 23:00 24.4 C 42 % 1016.9 hPa 0.0 l/m 0.7 km/h (0 Bft) O-SO 10.8 C 24.4 C
14.08.2003 00:00 23.5 C 47 % 1016.9 hPa 0.0 l/m 1.2 km/h (1 Bft) O-SO 11.5 C 23.5 C
14.08.2003 01:00 22.6 C 49 % 1017.2 hPa 0.0 l/m 0.6 km/h (0 Bft) O-SO 11.3 C 22.6 C
14.08.2003 02:00 20.9 C 57 % 1016.9 hPa 0.0 l/m 0.9 km/h (0 Bft) O-SO 12.0 C 20.9 C
14.08.2003 03:00 19.9 C 61 % 1016.2 hPa 0.0 l/m 3.1 km/h (1 Bft) O-SO 12.1 C 19.9 C
14.08.2003 04:00 19.1 C 64 % 1015.9 hPa 0.0 l/m 4.5 km/h (1 Bft) O-SO 12.1 C 19.1 C
14.08.2003 05:00 19.1 C 66 % 1015.9 hPa 0.0 l/m 0.2 km/h (0 Bft) N 12.6 C 19.1 C
14.08.2003 06:00 18.7 C 71 % 1015.9 hPa 0.0 l/m 0.1 km/h (0 Bft) O-SO 13.3 C 18.7 C
14.08.2003 07:00 20.0 C 66 % 1015.9 hPa 0.0 l/m 0.0 km/h (0 Bft) N 13.5 C 20.0 C
14.08.2003 08:00 21.4 C 62 % 1015.9 hPa 0.0 l/m 0.0 km/h (0 Bft) N 13.7 C 21.4 C
14.08.2003 09:00 20.4 C 71 % 1015.9 hPa 7.5 l/m 8.2 km/h (2 Bft) O-SO 14.7 C 20.4 C
14.08.2003 10:00 19.4 C 95 % 1016.9 hPa 0.0 l/m 2.0 km/h (1 Bft) O-SO 18.5 C 19.4 C
14.08.2003 11:00 19.1 C 93 % 1017.7 hPa 3.0 l/m 8.0 km/h (2 Bft) O-SO 17.8 C 19.1 C
14.08.2003 12:00 19.8 C 93 % 1016.3 hPa 0.6 l/m 1.1 km/h (0 Bft) NO 18.6 C 19.8 C
14.08.2003 13:00 21.9 C 85 % 1016.7 hPa 0.0 l/m 2.6 km/h (1 Bft) O-SO 19.2 C 21.9 C
14.08.2003 14:00 23.3 C 76 % 1016.0 hPa 0.3 l/m 1.3 km/h (1 Bft) W-NW 18.7 C 23.3 C
14.08.2003 15:00 23.3 C 83 % 1015.9 hPa 0.3 l/m 3.9 km/h (1 Bft) O-SO 20.1 C 23.3 C
14.08.2003 16:00 26.5 C 59 % 1014.4 hPa 0.0 l/m 1.7 km/h (1 Bft) W-NW 17.8 C 26.5 C
14.08.2003 17:00 28.5 C 46 % 1013.7 hPa 0.0 l/m 5.6 km/h (1 Bft) W-NW 15.6 C 28.5 C
14.08.2003 18:00 28.8 C 42 % 1012.8 hPa 0.0 l/m 1.8 km/h (1 Bft) W 14.7 C 28.8 C
14.08.2003 19:00 27.2 C 48 % 1012.8 hPa 0.0 l/m 2.0 km/h (1 Bft) W-NW 15.3 C 27.2 C
14.08.2003 20:00 24.1 C 65 % 1012.8 hPa 0.0 l/m 3.7 km/h (1 Bft) O-SO 17.1 C 24.1 C
14.08.2003 21:00 22.1 C 72 % 1012.8 hPa 0.0 l/m 1.5 km/h (1 Bft) O-SO 16.7 C 22.1 C
14.08.2003 22:00 20.3 C 79 % 1012.8 hPa 0.0 l/m 1.1 km/h (1 Bft) O-SO 16.6 C 20.3 C
14.08.2003 23:00 19.7 C 83 % 1012.8 hPa 0.0 l/m 4.7 km/h (1 Bft) O-SO 16.8 C 19.7 C
15.08.2003 00:00 19.0 C 87 % 1012.8 hPa 0.0 l/m 1.2 km/h (1 Bft) O-SO 16.8 C 19.0 C
15.08.2003 01:00 18.5 C 88 % 1012.8 hPa 0.0 l/m 0.0 km/h (0 Bft) N 16.4 C 18.5 C
15.08.2003 02:00 18.4 C 90 % 1012.8 hPa 0.0 l/m 1.9 km/h (1 Bft) O-SO 16.6 C 18.4 C
15.08.2003 03:00 17.9 C 90 % 1012.8 hPa 0.0 l/m 0.8 km/h (0 Bft) O-SO 16.2 C 17.9 C
15.08.2003 04:00 17.4 C 92 % 1012.8 hPa 0.0 l/m 0.6 km/h (0 Bft) O-SO 16.2 C 17.4 C
15.08.2003 05:00 17.2 C 94 % 1012.8 hPa 0.0 l/m 0.0 km/h (0 Bft) N 16.1 C 17.2 C
15.08.2003 06:00 17.2 C 95 % 1012.8 hPa 0.0 l/m 0.3 km/h (0 Bft) O-SO 16.4 C 17.2 C
15.08.2003 07:00 17.9 C 94 % 1012.8 hPa 0.0 l/m 0.9 km/h (0 Bft) O-SO 17.0 C 17.9 C
15.08.2003 08:00 19.4 C 86 % 1013.8 hPa 0.0 l/m 0.3 km/h (0 Bft) O 17.0 C 19.4 C
15.08.2003 09:00 20.8 C 75 % 1013.8 hPa 0.0 l/m 0.5 km/h (0 Bft) SW 16.2 C 20.8 C
15.08.2003 10:00 21.5 C 65 % 1014.6 hPa 0.0 l/m 3.7 km/h (1 Bft) W-NW 14.6 C 21.5 C
15.08.2003 11:00 22.7 C 62 % 1014.8 hPa 6.6 l/m 2.8 km/h (1 Bft) W-NW 14.9 C 22.7 C
15.08.2003 12:00 21.6 C 86 % 1014.5 hPa 1.5 l/m 0.1 km/h (0 Bft) N 19.1 C 21.6 C
15.08.2003 13:00 23.2 C 69 % 1013.8 hPa 0.0 l/m 0.0 km/h (0 Bft) N 17.3 C 23.2 C
15.08.2003 14:00 25.0 C 60 % 1012.9 hPa 0.0 l/m 0.6 km/h (0 Bft) W 16.5 C 25.0 C
15.08.2003 15:00 25.3 C 53 % 1013.8 hPa 0.0 l/m 12.2 km/h (2 Bft) O 15.0 C 25.3 C
15.08.2003 16:00 25.1 C 52 % 1013.8 hPa 0.0 l/m 5.7 km/h (1 Bft) O-SO 14.6 C 25.1 C
15.08.2003 17:00 25.2 C 49 % 1013.8 hPa 0.0 l/m 2.3 km/h (1 Bft) W-NW 13.7 C 25.2 C
15.08.2003 18:00 25.6 C 47 % 1013.8 hPa 0.0 l/m 1.0 km/h (0 Bft) W-NW 13.3 C 25.6 C
15.08.2003 19:00 24.0 C 57 % 1013.1 hPa 0.0 l/m 1.1 km/h (0 Bft) W 14.9 C 24.0 C
15.08.2003 20:00 21.3 C 71 % 1013.0 hPa 0.0 l/m 0.0 km/h (0 Bft) N 15.8 C 21.3 C
15.08.2003 21:00 19.2 C 84 % 1013.8 hPa 0.0 l/m 0.1 km/h (0 Bft) S-SW 16.4 C 19.2 C
15.08.2003 22:00 18.2 C 87 % 1014.2 hPa 0.0 l/m 0.0 km/h (0 Bft) N 16.0 C 18.2 C
15.08.2003 23:00 17.9 C 90 % 1014.5 hPa 0.0 l/m 0.3 km/h (0 Bft) W-SW 16.2 C 17.9 C
16.08.2003 00:00 17.3 C 92 % 1014.3 hPa 0.0 l/m 0.0 km/h (0 Bft) N 16.0 C 17.3 C
16.08.2003 01:00 16.5 C 93 % 1014.1 hPa 0.0 l/m 0.2 km/h (0 Bft) NO 15.4 C 16.5 C
16.08.2003 02:00 16.6 C 94 % 1014.8 hPa 0.0 l/m 0.0 km/h (0 Bft) N 15.6 C 16.6 C
16.08.2003 03:00 16.7 C 95 % 1014.8 hPa 0.0 l/m 0.0 km/h (0 Bft) N 15.8 C 16.7 C
16.08.2003 04:00 16.2 C 94 % 1014.6 hPa 0.0 l/m 0.0 km/h (0 Bft) N 15.2 C 16.2 C
16.08.2003 05:00 15.3 C 95 % 1014.8 hPa 0.0 l/m 0.0 km/h (0 Bft) N 14.6 C 15.3 C
16.08.2003 06:00 15.5 C 96 % 1014.8 hPa 0.0 l/m 0.0 km/h (0 Bft) N 14.7 C 15.5 C
16.08.2003 07:00 16.2 C 100 % 1014.8 hPa 0.0 l/m 0.0 km/h (0 Bft) N 16.2 C 16.2 C
16.08.2003 08:00 17.3 C 93 % 1015.3 hPa 0.0 l/m 0.1 km/h (0 Bft) N 16.0 C 17.3 C
16.08.2003 09:00 18.5 C 84 % 1015.9 hPa 0.0 l/m 0.9 km/h (0 Bft) W-NW 15.8 C 18.5 C
16.08.2003 10:00 20.4 C 73 % 1015.9 hPa 0.0 l/m 0.5 km/h (0 Bft) W-NW 15.4 C 20.4 C
16.08.2003 11:00 22.8 C 65 % 1015.1 hPa 0.0 l/m 2.3 km/h (1 Bft) W-NW 16.0 C 22.8 C
16.08.2003 12:00 24.7 C 58 % 1014.5 hPa 0.0 l/m 4.0 km/h (1 Bft) W-NW 15.7 C 24.7 C
16.08.2003 13:00 27.3 C 45 % 1013.8 hPa 0.0 l/m 3.4 km/h (1 Bft) W-NW 14.4 C 27.3 C
16.08.2003 14:00 29.7 C 39 % 1013.3 hPa 0.0 l/m 3.7 km/h (1 Bft) O-SO 14.1 C 29.7 C
16.08.2003 15:00 30.9 C 33 % 1012.8 hPa 0.0 l/m 2.6 km/h (1 Bft) N-NW 12.6 C 30.9 C
16.08.2003 16:00 31.3 C 30 % 1012.4 hPa 0.0 l/m 0.3 km/h (0 Bft) N 11.8 C 31.3 C
16.08.2003 17:00 31.3 C 30 % 1011.7 hPa 0.0 l/m 1.2 km/h (1 Bft) W-NW 11.6 C 31.3 C
16.08.2003 18:00 29.9 C 34 % 1011.7 hPa 0.0 l/m 0.0 km/h (0 Bft) N 12.1 C 29.9 C
16.08.2003 19:00 27.7 C 43 % 1011.7 hPa 0.0 l/m 5.2 km/h (1 Bft) O-SO 13.9 C 27.7 C
16.08.2003 20:00 26.0 C 48 % 1011.7 hPa 0.0 l/m 3.0 km/h (1 Bft) O-SO 14.2 C 26.0 C
16.08.2003 21:00 24.0 C 58 % 1011.7 hPa 0.0 l/m 0.9 km/h (0 Bft) SO 15.0 C 24.0 C
16.08.2003 22:00 22.6 C 66 % 1012.7 hPa 0.0 l/m 0.0 km/h (0 Bft) N 15.9 C 22.6 C
16.08.2003 23:00 21.3 C 73 % 1013.4 hPa 0.0 l/m 0.6 km/h (0 Bft) SO 16.3 C 21.3 C
17.08.2003 00:00 21.5 C 71 % 1014.5 hPa 0.0 l/m 8.0 km/h (2 Bft) SW 16.0 C 21.5 C
17.08.2003 01:00 19.2 C 86 % 1016.7 hPa 5.1 l/m 16.6 km/h (3 Bft) NW 16.8 C 19.2 C
17.08.2003 02:00 18.4 C 94 % 1015.7 hPa 1.2 l/m 5.3 km/h (1 Bft) O-SO 17.5 C 18.4 C
17.08.2003 03:00 18.4 C 95 % 1014.2 hPa 0.0 l/m 1.2 km/h (1 Bft) N-NO 17.6 C 18.4 C
17.08.2003 04:00 18.1 C 95 % 1013.9 hPa 0.0 l/m 0.0 km/h (0 Bft) N 17.3 C 18.1 C
17.08.2003 05:00 17.6 C 95 % 1013.8 hPa 0.0 l/m 0.3 km/h (0 Bft) SO 16.9 C 17.6 C
17.08.2003 06:00 17.1 C 95 % 1013.9 hPa 0.0 l/m 0.0 km/h (0 Bft) N 16.3 C 17.1 C
17.08.2003 07:00 17.8 C 99 % 1014.6 hPa 0.0 l/m 0.0 km/h (0 Bft) N 17.6 C 17.8 C
17.08.2003 08:00 18.5 C 100 % 1014.8 hPa 0.0 l/m 0.4 km/h (0 Bft) SO 18.5 C 18.5 C
17.08.2003 09:00 19.5 C 100 % 1014.8 hPa 0.0 l/m 0.0 km/h (0 Bft) N 19.5 C 19.5 C
17.08.2003 10:00 20.7 C 87 % 1014.8 hPa 0.0 l/m 0.2 km/h (0 Bft) O 18.5 C 20.7 C
17.08.2003 11:00 22.9 C 73 % 1014.8 hPa 0.0 l/m 2.5 km/h (1 Bft) SO 17.8 C 22.9 C
17.08.2003 12:00 25.4 C 61 % 1014.8 hPa 0.0 l/m 3.0 km/h (1 Bft) O-SO 17.2 C 25.4 C
17.08.2003 13:00 28.2 C 49 % 1014.1 hPa 0.0 l/m 2.3 km/h (1 Bft) O-SO 16.5 C 28.2 C
17.08.2003 14:00 30.8 C 39 % 1013.8 hPa 0.0 l/m 7.3 km/h (2 Bft) O-SO 14.8 C 30.8 C
17.08.2003 15:00 31.6 C 32 % 1013.5 hPa 0.0 l/m 0.5 km/h (0 Bft) W-NW 12.6 C 31.6 C
17.08.2003 16:00 31.5 C 30 % 1012.8 hPa 0.0 l/m 0.3 km/h (0 Bft) NW 11.9 C 31.5 C
17.08.2003 17:00 32.0 C 26 % 1012.8 hPa 0.0 l/m 1.6 km/h (1 Bft) SO 9.8 C 32.0 C
17.08.2003 18:00 31.4 C 26 % 1011.8 hPa 0.0 l/m 2.7 km/h (1 Bft) O-SO 9.6 C 31.4 C
17.08.2003 19:00 29.6 C 36 % 1011.7 hPa 0.0 l/m 2.8 km/h (1 Bft) SO 12.7 C 29.6 C
17.08.2003 20:00 26.2 C 53 % 1011.7 hPa 0.0 l/m 0.4 km/h (0 Bft) SO 15.9 C 26.2 C
17.08.2003 21:00 24.5 C 57 % 1013.4 hPa 0.0 l/m 13.0 km/h (3 Bft) SO 15.4 C 24.5 C
17.08.2003 22:00 21.8 C 65 % 1016.7 hPa 1.5 l/m 9.5 km/h (2 Bft) W-NW 14.7 C 21.8 C
17.08.2003 23:00 19.2 C 90 % 1017.1 hPa 3.8 l/m 0.1 km/h (0 Bft) O-SO 17.5 C 19.2 C
Min-Datum _ 12.08.03 11.08.03 16.08.03 - 11.08.03 - 11.08.03 12.08.03
_ Min-Zeit 06:28 12:43 16:36 - 00:13 - 20:55 06:28
Minimum _ 14.4 C 20 % 1011.7 hPa - 0.0 km/h (0 Bft) - 3.3 C 14.4 C
Max-Datum _ 13.08.03 16.08.03 12.08.03 14.08.03 17.08.03 - 14.08.03 13.08.03
_ Max-Zeit 15:29 05:45 08:52 09:33 01:09 - 15:33 15:29
Maximum _ 38.4 C 100 % 1024.3 hPa 7.5 l/m 52.1 km/h
NW (7 Bft)
- 21.3 C 38.4 C
Durchschnitt _ 23.7 C 58 % 1016.4 hPa #31.5 l/m 3.1 km/h (1 Bft) O-SO 12.9 C 23.7 C

Durchschnitt Minimum Temp.22.5 C
Durchschnitt Maximum Temp.24.9 C
© Kaiko 2003